Time;durP1;ratioP1;P1;durP2;ratioP2;P2;SDS_P1;SDS_P2;PMS_P1;PMS_P2;Temp;Humidity;BMP_temperature;BMP_pressure;BME280_temperature;BME280_humidity;BME280_pressure;Samples;Min_cycle;Max_cycle;Signal;HPM_P1;HPM_P2
2021/12/30 00:00:49;;;;;;;5.25;1.60;;;;;;;2.71;56.35;100827.59;4955887;28;20054;-71
2021/12/30 00:03:17;;;;;;;6.00;1.17;;;;;;;2.69;57.88;100820.63;4941813;29;20051;-72
2021/12/30 00:05:46;;;;;;;5.22;1.33;;;;;;;2.63;58.36;100833.88;4952224;28;20063;-70
2021/12/30 00:08:17;;;;;;;3.22;1.42;;;;;;;2.58;58.16;100842.94;4935618;28;20131;-71
2021/12/30 00:10:45;;;;;;;2.53;1.30;;;;;;;2.55;57.02;100855.53;4944178;28;20122;-72
2021/12/30 00:13:14;;;;;;;3.13;1.35;;;;;;;2.50;59.41;100852.69;4952841;28;20130;-72
2021/12/30 00:15:42;;;;;;;2.55;1.25;;;;;;;2.46;58.68;100849.84;4934073;28;20197;-71
2021/12/30 00:18:12;;;;;;;3.47;1.67;;;;;;;2.42;60.20;100837.66;4934605;29;20098;-71
2021/12/30 00:20:41;;;;;;;2.92;1.02;;;;;;;2.33;60.82;100831.97;4950797;29;20106;-72
2021/12/30 00:23:10;;;;;;;5.13;1.52;;;;;;;2.31;60.63;100834.41;4944439;28;20051;-72
2021/12/30 00:25:42;;;;;;;2.15;1.05;;;;;;;2.26;59.50;100836.69;4949282;29;20051;-72
2021/12/30 00:28:13;;;;;;;2.50;1.05;;;;;;;2.21;58.29;100843.16;4934600;29;20052;-72
2021/12/30 00:30:42;;;;;;;3.67;1.58;;;;;;;2.19;60.86;100847.28;4948273;29;20081;-71
2021/12/30 00:33:11;;;;;;;4.50;1.52;;;;;;;2.14;61.63;100840.13;4947729;29;20522;-72
2021/12/30 00:35:41;;;;;;;2.63;1.60;;;;;;;2.10;62.64;100842.47;4934173;29;20056;-72
2021/12/30 00:38:10;;;;;;;3.80;1.45;;;;;;;2.02;61.29;100838.56;4934123;29;20077;-71
2021/12/30 00:40:40;;;;;;;5.18;1.83;;;;;;;1.99;61.79;100845.97;4934377;29;20548;-71
2021/12/30 00:43:10;;;;;;;4.50;1.60;;;;;;;1.96;62.36;100844.91;4932643;29;20043;-71
2021/12/30 00:45:39;;;;;;;2.38;1.35;;;;;;;1.92;63.34;100855.72;4934184;29;20063;-76
2021/12/30 00:48:08;;;;;;;2.20;1.17;;;;;;;1.87;63.74;100853.72;4933564;29;20047;-76
2021/12/30 00:50:38;;;;;;;2.75;1.33;;;;;;;1.83;64.05;100862.00;4933773;29;20052;-76
2021/12/30 00:53:07;;;;;;;8.90;2.13;;;;;;;1.81;64.78;100860.09;4934397;29;20089;-78
2021/12/30 00:55:36;;;;;;;3.63;1.70;;;;;;;1.76;65.44;100867.44;4933629;29;20122;-76
2021/12/30 00:58:08;;;;;;;7.25;2.10;;;;;;;1.71;64.81;100883.25;4934433;29;20059;-76
2021/12/30 01:00:38;;;;;;;2.33;1.52;;;;;;;1.64;66.23;100884.50;4937652;29;20592;-75
2021/12/30 01:03:06;;;;;;;5.65;2.13;;;;;;;1.50;67.54;100857.19;4942326;29;20544;-75
2021/12/30 01:05:35;;;;;;;4.88;1.50;;;;;;;1.54;66.12;100860.03;4940554;28;20068;-75
2021/12/30 01:08:05;;;;;;;4.32;1.40;;;;;;;1.48;64.69;100853.66;4946168;28;20056;-75
2021/12/30 01:10:34;;;;;;;2.47;1.38;;;;;;;1.43;64.02;100866.09;4947941;28;20066;-75
2021/12/30 01:13:05;;;;;;;2.03;1.30;;;;;;;1.35;64.51;100880.88;4951504;28;20126;-74
2021/12/30 01:15:48;;;;;;;3.88;1.40;;;;;;;1.32;64.47;100877.22;4934503;28;20051;-74
2021/12/30 01:18:28;;;;;;;2.40;1.30;;;;;;;1.27;65.16;100879.44;4933288;29;20519;-75
2021/12/30 01:20:57;;;;;;;2.83;1.30;;;;;;;1.21;64.29;100890.13;4938711;28;20044;-73
2021/12/30 01:23:27;;;;;;;2.85;1.40;;;;;;;1.16;64.29;100885.47;4949683;28;20055;-75
2021/12/30 01:25:57;;;;;;;3.95;1.35;;;;;;;1.12;65.04;100880.94;4936413;28;20110;-74
2021/12/30 01:28:26;;;;;;;2.17;1.20;;;;;;;1.07;65.88;100874.63;4935497;29;20080;-74
2021/12/30 01:30:58;;;;;;;3.35;1.55;;;;;;;1.06;65.57;100862.69;4936936;29;20135;-75
2021/12/30 01:33:27;;;;;;;4.28;1.08;;;;;;;1.02;65.31;100852.25;4936008;29;20131;-75
2021/12/30 01:36:03;;;;;;;2.28;1.60;;;;;;;0.99;66.36;100841.00;4936824;29;20052;-71
2021/12/30 01:38:31;;;;;;;2.72;1.23;;;;;;;0.97;68.00;100833.25;4936459;29;20502;-75
2021/12/30 01:41:01;;;;;;;18.58;11.18;;;;;;;0.93;71.11;100830.38;4936659;29;20103;-75
2021/12/30 01:43:30;;;;;;;21.50;7.47;;;;;;;0.90;72.92;100819.97;4942975;28;20047;-71
2021/12/30 01:46:00;;;;;;;3.25;1.58;;;;;;;0.86;71.88;100828.19;4974182;28;20129;-71
2021/12/30 01:48:28;;;;;;;3.50;1.70;;;;;;;0.84;70.76;100841.69;4956748;28;20082;-71
2021/12/30 01:50:57;;;;;;;4.47;2.28;;;;;;;0.81;70.41;100830.41;4936149;29;20497;-71
2021/12/30 01:53:26;;;;;;;5.50;1.65;;;;;;;0.80;70.03;100855.00;4935828;29;20048;-71
2021/12/30 01:55:55;;;;;;;4.57;1.70;;;;;;;0.78;68.96;100874.38;4935863;29;20130;-71
2021/12/30 01:58:23;;;;;;;3.92;1.55;;;;;;;0.75;70.40;100888.56;4936412;29;20055;-71
2021/12/30 02:00:53;;;;;;;3.63;1.77;;;;;;;0.71;69.80;100889.09;4936831;29;20623;-73
2021/12/30 02:03:24;;;;;;;8.32;1.88;;;;;;;0.68;70.41;100894.00;4938695;29;20490;-72
2021/12/30 02:05:59;;;;;;;5.10;1.80;;;;;;;0.66;69.13;100908.28;4956125;28;20063;-71
2021/12/30 02:08:27;;;;;;;7.82;1.70;;;;;;;0.65;69.47;100911.63;4945585;28;20048;-73
2021/12/30 02:10:56;;;;;;;6.70;1.92;;;;;;;0.61;73.08;100913.91;4947865;28;20071;-73
2021/12/30 02:13:24;;;;;;;3.88;1.90;;;;;;;0.54;70.77;100910.84;4953387;28;20047;-73
2021/12/30 02:16:00;;;;;;;2.35;1.55;;;;;;;0.53;70.15;100906.53;4942745;29;20114;-73
2021/12/30 02:18:31;;;;;;;4.82;1.65;;;;;;;0.51;71.02;100891.13;4941323;28;20123;-73
2021/12/30 02:21:02;;;;;;;2.67;1.38;;;;;;;0.41;69.95;100894.69;4941233;29;20789;-73
2021/12/30 02:23:33;;;;;;;2.55;0.80;;;;;;;0.28;70.98;100886.06;4942126;28;20047;-71
2021/12/30 02:26:03;;;;;;;1.98;1.33;;;;;;;0.16;72.28;100880.94;4936316;29;20114;-73
2021/12/30 02:28:34;;;;;;;3.67;1.25;;;;;;;0.04;71.17;100885.13;4935555;29;20091;-72
2021/12/30 02:31:08;;;;;;;3.75;1.75;;;;;;;-0.08;72.97;100891.09;4951489;29;20126;-72
2021/12/30 02:33:36;;;;;;;2.97;1.30;;;;;;;-0.07;72.40;100899.59;4944277;28;20054;-71
2021/12/30 02:36:07;;;;;;;5.35;1.60;;;;;;;-0.04;73.50;100907.47;4935783;29;20120;-70
2021/12/30 02:38:36;;;;;;;3.00;1.50;;;;;;;-0.10;74.02;100891.75;4936091;29;20047;-70
2021/12/30 02:41:05;;;;;;;3.45;1.85;;;;;;;0.05;73.44;100917.44;4935983;29;20048;-70
2021/12/30 02:43:34;;;;;;;2.92;1.52;;;;;;;0.06;72.40;100909.91;4948690;29;20047;-73
2021/12/30 02:46:03;;;;;;;4.57;2.25;;;;;;;0.11;73.26;100911.13;4935482;29;20091;-72
2021/12/30 02:48:37;;;;;;;3.38;1.50;;;;;;;0.14;71.61;100918.13;4935286;29;20055;-72
2021/12/30 02:51:08;;;;;;;5.80;1.58;;;;;;;0.03;71.66;100903.72;4935399;29;20107;-73
2021/12/30 02:53:37;;;;;;;3.53;1.55;;;;;;;-0.06;71.18;100879.38;4934602;29;20110;-74
2021/12/30 02:56:07;;;;;;;4.05;1.70;;;;;;;-0.22;72.49;100862.09;4935702;29;21927;-73
2021/12/30 02:58:36;;;;;;;3.58;1.52;;;;;;;-0.33;74.15;100870.56;4935322;29;20197;-72
2021/12/30 03:01:12;;;;;;;2.58;1.42;;;;;;;-0.43;73.99;100870.69;4935611;29;20056;-72
2021/12/30 03:03:41;;;;;;;4.65;1.45;;;;;;;-0.42;75.56;100869.88;4935678;29;20105;-74
2021/12/30 03:06:15;;;;;;;8.05;2.10;;;;;;;-0.38;76.39;100887.16;4938934;28;20051;-70
2021/12/30 03:08:45;;;;;;;4.10;2.15;;;;;;;-0.32;77.80;100889.25;4934829;29;20052;-69
2021/12/30 03:11:14;;;;;;;4.07;1.50;;;;;;;-0.27;77.30;100909.19;4948813;28;20043;-69
2021/12/30 03:13:44;;;;;;;4.95;1.92;;;;;;;-0.24;78.02;100911.94;4949854;28;20493;-70
2021/12/30 03:16:15;;;;;;;6.22;3.00;;;;;;;-0.22;76.44;100923.13;4935156;29;20051;-73
2021/12/30 03:18:47;;;;;;;12.15;2.00;;;;;;;-0.18;76.48;100918.25;4936746;29;20059;-72
2021/12/30 03:21:21;;;;;;;4.97;1.90;;;;;;;-0.15;76.60;100910.88;4945976;28;20048;-72
2021/12/30 03:23:50;;;;;;;2.28;1.45;;;;;;;-0.12;77.26;100918.72;4935558;29;20055;-71
2021/12/30 03:26:19;;;;;;;4.20;1.60;;;;;;;-0.10;76.34;100927.34;4946813;28;20565;-72
2021/12/30 03:28:48;;;;;;;3.25;1.40;;;;;;;-0.08;75.89;100925.81;4934713;29;20497;-72
2021/12/30 03:31:20;;;;;;;5.85;2.20;;;;;;;-0.07;74.56;100927.56;4934902;29;20192;-72
2021/12/30 03:33:49;;;;;;;3.80;1.60;;;;;;;-0.07;74.59;100913.22;4946550;29;20552;-72
2021/12/30 03:36:20;;;;;;;5.00;2.17;;;;;;;-0.08;73.09;100910.56;4948812;28;20056;-72
2021/12/30 03:38:51;;;;;;;6.53;2.88;;;;;;;-0.17;72.62;100902.25;4934416;29;20047;-72
2021/12/30 03:41:22;;;;;;;4.45;2.00;;;;;;;-0.17;73.86;100899.69;4938384;29;20118;-72
2021/12/30 03:43:50;;;;;;;9.45;2.72;;;;;;;-0.15;74.58;100888.88;4944570;28;20048;-72
2021/12/30 03:46:19;;;;;;;7.53;3.03;;;;;;;-0.13;74.61;100876.28;4935333;29;20055;-72
2021/12/30 03:48:48;;;;;;;5.22;1.98;;;;;;;-0.12;74.14;100872.94;4953319;28;20090;-71
2021/12/30 03:51:23;;;;;;;4.05;1.92;;;;;;;-0.26;72.98;100857.53;4953406;28;20464;-72
2021/12/30 03:53:55;;;;;;;4.40;1.83;;;;;;;-0.29;73.36;100864.97;4933972;29;20501;-72
2021/12/30 03:56:25;;;;;;;6.82;2.40;;;;;;;-0.49;73.15;100860.03;4934134;29;20122;-72
2021/12/30 03:58:54;;;;;;;3.78;1.92;;;;;;;-0.49;72.61;100878.72;4938771;29;20062;-71
2021/12/30 04:01:25;;;;;;;4.63;1.75;;;;;;;-0.52;74.40;100882.69;4952124;28;20078;-74
2021/12/30 04:03:53;;;;;;;4.65;2.08;;;;;;;-0.55;73.86;100872.28;4950667;28;20051;-72
2021/12/30 04:06:24;;;;;;;5.47;2.00;;;;;;;-0.59;74.46;100862.66;4938259;28;20517;-72
2021/12/30 04:08:52;;;;;;;4.75;2.85;;;;;;;-0.57;75.29;100868.72;4949665;29;20056;-73
2021/12/30 04:11:23;;;;;;;5.68;1.95;;;;;;;-0.52;75.46;100873.41;4953167;28;20051;-73
2021/12/30 04:13:51;;;;;;;4.85;1.50;;;;;;;-0.49;74.07;100854.94;4948198;28;20047;-74
2021/12/30 04:16:21;;;;;;;3.42;1.70;;;;;;;-0.52;75.44;100860.69;4933910;29;20512;-73
2021/12/30 04:18:50;;;;;;;2.80;1.67;;;;;;;-0.46;76.00;100855.16;4935431;29;20056;-71
2021/12/30 04:21:19;;;;;;;4.60;2.33;;;;;;;-0.44;74.92;100861.25;4951776;28;20122;-74
2021/12/30 04:23:50;;;;;;;4.90;1.95;;;;;;;-0.42;74.97;100873.31;4952363;28;20062;-70
2021/12/30 04:26:19;;;;;;;4.45;2.03;;;;;;;-0.37;75.92;100882.94;4947647;28;20059;-70
2021/12/30 04:28:47;;;;;;;5.13;1.83;;;;;;;-0.35;75.69;100879.75;4953159;28;20077;-70
2021/12/30 04:31:16;;;;;;;5.72;2.63;;;;;;;-0.37;76.06;100881.28;4934908;28;20055;-70
2021/12/30 04:33:44;;;;;;;3.60;1.70;;;;;;;-0.30;76.85;100875.91;4933408;29;20052;-70
2021/12/30 04:36:13;;;;;;;3.42;2.15;;;;;;;-0.29;77.59;100880.22;4947231;29;20052;-70
2021/12/30 04:38:42;;;;;;;4.45;2.20;;;;;;;-0.33;74.98;100851.91;4942149;29;20054;-70
2021/12/30 04:41:13;;;;;;;3.25;1.75;;;;;;;-0.40;76.98;100850.56;4951411;28;20050;-70
2021/12/30 04:43:42;;;;;;;4.40;1.70;;;;;;;-0.39;78.90;100857.44;4933049;29;20123;-70
2021/12/30 04:46:11;;;;;;;2.78;1.73;;;;;;;-0.34;78.45;100855.22;4933181;29;20568;-70
2021/12/30 04:48:39;;;;;;;3.40;1.95;;;;;;;-0.33;78.81;100850.25;4933601;29;20055;-70
2021/12/30 04:51:08;;;;;;;5.43;2.25;;;;;;;-0.42;78.66;100847.00;4945590;29;20110;-70
2021/12/30 04:53:36;;;;;;;5.13;1.88;;;;;;;-0.37;80.61;100853.31;4951697;28;20494;-71
2021/12/30 04:56:05;;;;;;;2.58;1.55;;;;;;;-0.34;80.86;100848.47;4942818;28;20059;-70
2021/12/30 04:58:35;;;;;;;3.40;2.08;;;;;;;-0.32;81.26;100851.13;4935717;29;20536;-71
2021/12/30 05:01:04;;;;;;;4.32;2.25;;;;;;;-0.28;83.13;100851.47;4952538;28;20485;-70
2021/12/30 05:03:33;;;;;;;6.50;2.38;;;;;;;-0.25;83.40;100871.16;4953662;28;20074;-70
2021/12/30 05:06:01;;;;;;;1.80;1.17;;;;;;;-0.20;83.89;100863.88;4938274;28;20047;-70
2021/12/30 05:08:30;;;;;;;3.17;1.70;;;;;;;-0.20;85.30;100861.34;4938158;29;20052;-71
2021/12/30 05:10:58;;;;;;;5.15;2.30;;;;;;;-0.17;84.17;100866.63;4951012;28;20051;-70
2021/12/30 05:13:27;;;;;;;6.53;2.13;;;;;;;-0.17;83.71;100864.09;4955611;28;20485;-70
2021/12/30 05:15:57;;;;;;;4.93;1.92;;;;;;;-0.15;84.73;100865.97;4956682;28;20047;-71
2021/12/30 05:18:31;;;;;;;4.32;2.22;;;;;;;-0.11;84.85;100864.56;4942872;28;20091;-70
2021/12/30 05:21:00;;;;;;;3.05;1.65;;;;;;;-0.11;84.43;100855.25;4937701;29;20110;-70
2021/12/30 05:23:28;;;;;;;5.97;2.15;;;;;;;-0.09;86.12;100873.16;4955881;28;20048;-70
2021/12/30 05:25:57;;;;;;;3.58;1.83;;;;;;;-0.07;86.65;100871.63;4955893;28;20043;-70
2021/12/30 05:28:26;;;;;;;3.58;2.40;;;;;;;-0.10;85.73;100862.09;4956367;28;20059;-70
2021/12/30 05:30:57;;;;;;;4.85;2.17;;;;;;;-0.18;86.01;100845.41;4955981;28;20048;-70
2021/12/30 05:33:25;;;;;;;4.13;2.13;;;;;;;-0.28;87.34;100835.31;4955911;28;20055;-71
2021/12/30 05:35:53;;;;;;;4.07;2.13;;;;;;;-0.22;92.09;100845.97;4952934;28;20063;-70
2021/12/30 05:38:22;;;;;;;5.10;2.38;;;;;;;-0.18;95.10;100844.50;4936936;29;20077;-70
2021/12/30 05:40:51;;;;;;;6.47;1.92;;;;;;;-0.20;94.45;100816.44;4950443;29;20047;-70
2021/12/30 05:43:19;;;;;;;4.00;2.40;;;;;;;-0.27;94.44;100796.44;4943056;29;20553;-70
2021/12/30 05:45:48;;;;;;;5.15;2.65;;;;;;;-0.33;95.66;100799.38;4955445;28;20053;-70
2021/12/30 05:48:18;;;;;;;3.03;1.70;;;;;;;-0.31;97.32;100800.38;4936458;28;20115;-70
2021/12/30 05:50:46;;;;;;;5.93;2.53;;;;;;;-0.26;99.11;100803.28;4936948;29;20105;-70
2021/12/30 05:53:15;;;;;;;9.30;2.38;;;;;;;-0.23;99.97;100796.75;4937542;29;20079;-71
2021/12/30 05:55:44;;;;;;;6.22;1.98;;;;;;;-0.16;100.00;100799.72;4944653;29;20109;-70
2021/12/30 05:58:12;;;;;;;4.43;1.70;;;;;;;-0.13;100.00;100802.53;4954465;28;20524;-70
2021/12/30 06:00:42;;;;;;;6.15;2.15;;;;;;;-0.12;100.00;100786.47;4936176;29;20060;-71
2021/12/30 06:03:11;;;;;;;7.63;2.30;;;;;;;-0.10;100.00;100795.09;4949004;29;20059;-70
2021/12/30 06:05:41;;;;;;;2.97;1.73;;;;;;;-0.07;100.00;100796.22;4938616;28;20166;-70
2021/12/30 06:08:10;;;;;;;4.38;2.15;;;;;;;-0.02;100.00;100804.19;4947736;29;20071;-69
2021/12/30 06:10:40;;;;;;;4.03;2.22;;;;;;;0.03;100.00;100820.66;4958582;28;20043;-70
2021/12/30 06:13:08;;;;;;;3.58;2.00;;;;;;;0.07;100.00;100824.28;4957819;28;20082;-70
2021/12/30 06:15:37;;;;;;;4.35;2.90;;;;;;;0.09;100.00;100816.03;4941590;28;20088;-70
2021/12/30 06:18:06;;;;;;;9.07;5.10;;;;;;;0.10;100.00;100810.16;4945719;28;20070;-70
2021/12/30 06:20:35;;;;;;;8.13;4.50;;;;;;;0.07;100.00;100799.75;4954782;29;20508;-70
2021/12/30 06:23:05;;;;;;;4.68;2.67;;;;;;;0.03;100.00;100805.41;4955424;28;20485;-70
2021/12/30 06:25:33;;;;;;;7.22;1.80;;;;;;;-0.01;100.00;100813.56;4939679;28;20048;-70
2021/12/30 06:28:02;;;;;;;6.78;2.38;;;;;;;-0.01;100.00;100801.72;4943358;29;20051;-70
2021/12/30 06:30:30;;;;;;;7.30;2.22;;;;;;;0.01;100.00;100796.75;4954511;29;20117;-69
2021/12/30 06:32:59;;;;;;;6.43;1.88;;;;;;;0.04;100.00;100796.97;4953710;29;20102;-69
2021/12/30 06:35:31;;;;;;;5.72;2.88;;;;;;;0.08;100.00;100787.91;4954844;28;20047;-69
2021/12/30 06:37:59;;;;;;;;;;;;;;;0.13;100.00;100790.00;4951276;28;20598;-69
2021/12/30 06:40:29;;;;;;;3.88;2.15;;;;;;;0.17;100.00;100792.00;4935612;29;19930;-70
2021/12/30 06:42:58;;;;;;;7.30;2.53;;;;;;;0.17;99.92;100786.03;4936522;29;20083;-70
2021/12/30 06:45:27;;;;;;;2.55;1.52;;;;;;;0.10;97.67;100781.28;4954466;28;20047;-69
2021/12/30 06:47:55;;;;;;;3.75;2.47;;;;;;;0.06;98.57;100771.66;4942211;28;20047;-70
2021/12/30 06:50:27;;;;;;;4.03;1.95;;;;;;;0.05;99.23;100778.41;4940425;29;20127;-70
2021/12/30 06:52:55;;;;;;;5.30;2.08;;;;;;;0.11;100.00;100773.75;4954369;28;20047;-69
2021/12/30 06:55:24;;;;;;;4.47;1.90;;;;;;;0.13;100.00;100768.78;4936897;28;20498;-70
2021/12/30 06:57:54;;;;;;;3.33;1.77;;;;;;;0.12;100.00;100760.25;4945073;29;20059;-71
2021/12/30 07:00:22;;;;;;;5.00;1.90;;;;;;;0.14;100.00;100771.44;4940378;28;20086;-70
2021/12/30 07:02:51;;;;;;;4.07;1.85;;;;;;;0.18;100.00;100763.25;4954006;28;20047;-71
2021/12/30 07:05:20;;;;;;;10.40;1.80;;;;;;;0.18;99.42;100747.97;4956077;28;20111;-70
2021/12/30 07:07:48;;;;;;;5.55;1.98;;;;;;;0.22;98.90;100743.97;4947533;28;20058;-70
2021/12/30 07:10:17;;;;;;;5.95;2.28;;;;;;;0.23;98.37;100727.94;4950769;28;20043;-70
2021/12/30 07:12:45;;;;;;;4.53;1.98;;;;;;;0.18;97.81;100720.00;4953833;28;20051;-71
2021/12/30 07:15:15;;;;;;;4.22;2.08;;;;;;;0.13;97.46;100718.75;4941896;28;20052;-71
2021/12/30 07:17:44;;;;;;;2.78;2.00;;;;;;;0.14;100.00;100720.53;4934676;29;20051;-70
2021/12/30 07:20:13;;;;;;;5.20;2.25;;;;;;;0.19;100.00;100724.28;4948378;29;20086;-71
2021/12/30 07:22:42;;;;;;;9.23;2.53;;;;;;;0.22;100.00;100728.72;4948453;29;20110;-71
2021/12/30 07:25:16;;;;;;;8.57;1.85;;;;;;;0.24;100.00;100733.91;4941051;28;20115;-70
2021/12/30 07:27:45;;;;;;;4.03;1.75;;;;;;;0.27;100.00;100740.09;4948576;29;20071;-71
2021/12/30 07:30:15;;;;;;;5.85;2.30;;;;;;;0.26;100.00;100704.38;4934912;29;20048;-71
2021/12/30 07:32:44;;;;;;;3.40;1.77;;;;;;;0.18;100.00;100676.75;4951357;29;20059;-71
2021/12/30 07:35:12;;;;;;;5.45;2.22;;;;;;;0.22;99.38;100676.94;4943753;28;20087;-71
2021/12/30 07:37:41;;;;;;;4.22;2.38;;;;;;;0.25;99.84;100697.50;4947980;29;20051;-71
2021/12/30 07:40:10;;;;;;;4.97;2.55;;;;;;;0.29;99.28;100709.66;4934746;29;20284;-71
2021/12/30 07:42:39;;;;;;;5.18;2.10;;;;;;;0.31;99.68;100703.91;4933959;29;20067;-71
2021/12/30 07:45:10;;;;;;;6.30;3.00;;;;;;;0.32;99.49;100709.88;4934990;29;20055;-71
2021/12/30 07:47:41;;;;;;;4.88;2.00;;;;;;;0.33;97.63;100709.09;4934597;29;20058;-70
2021/12/30 07:50:10;;;;;;;5.88;2.38;;;;;;;0.32;98.08;100685.31;4953069;29;20058;-70
2021/12/30 07:52:39;;;;;;;4.20;1.80;;;;;;;0.34;98.63;100678.66;4941515;28;20052;-71
2021/12/30 07:55:09;;;;;;;8.00;2.80;;;;;;;0.35;97.28;100662.63;4951499;29;20413;-71
2021/12/30 07:57:38;;;;;;;5.75;1.85;;;;;;;0.28;97.03;100654.47;4942807;28;20106;-70
2021/12/30 08:00:09;;;;;;;4.03;2.10;;;;;;;0.42;97.10;100676.66;4934378;29;20056;-70
2021/12/30 08:02:41;;;;;;;6.88;2.25;;;;;;;0.42;96.80;100656.28;4942229;29;20055;-70
2021/12/30 08:05:11;;;;;;;5.05;1.80;;;;;;;0.44;95.49;100661.50;4941438;28;20588;-71
2021/12/30 08:07:40;;;;;;;4.60;2.50;;;;;;;0.46;96.56;100668.44;4952947;28;20055;-70
2021/12/30 08:10:12;;;;;;;7.03;2.30;;;;;;;0.47;95.41;100660.03;4944544;28;20054;-70
2021/12/30 08:12:42;;;;;;;2.92;1.85;;;;;;;0.45;95.75;100659.03;4943006;29;20083;-69
2021/12/30 08:15:11;;;;;;;6.35;2.28;;;;;;;0.48;96.58;100669.44;4955175;28;20055;-70
2021/12/30 08:17:43;;;;;;;6.80;2.95;;;;;;;0.49;95.49;100658.47;4938127;29;20044;-70
2021/12/30 08:20:13;;;;;;;5.18;2.15;;;;;;;0.50;95.04;100655.13;4949224;29;20055;-71
2021/12/30 08:22:42;;;;;;;9.15;2.42;;;;;;;0.47;96.16;100634.56;4953281;28;20047;-70
2021/12/30 08:25:11;;;;;;;4.28;2.50;;;;;;;0.39;98.29;100634.06;4942339;28;20230;-71
2021/12/30 08:27:41;;;;;;;6.25;2.70;;;;;;;0.31;97.63;100619.91;4950829;29;20043;-70
2021/12/30 08:30:11;;;;;;;5.70;2.53;;;;;;;0.29;98.90;100597.69;4952775;28;20051;-71
2021/12/30 08:32:42;;;;;;;3.90;2.53;;;;;;;0.30;99.91;100596.91;4952096;28;20575;-71
2021/12/30 08:35:12;;;;;;;4.75;2.67;;;;;;;0.28;99.15;100585.75;4952864;28;20109;-70
2021/12/30 08:37:42;;;;;;;6.10;3.03;;;;;;;0.23;99.66;100571.81;4936496;29;20056;-71
2021/12/30 08:40:12;;;;;;;7.15;2.80;;;;;;;0.12;100.00;100559.25;4933613;29;20103;-71
2021/12/30 08:42:41;;;;;;;4.20;2.83;;;;;;;0.09;100.00;100589.59;4960077;28;20137;-71
2021/12/30 08:45:11;;;;;;;8.00;2.92;;;;;;;0.11;100.00;100572.75;4952466;28;20055;-70
2021/12/30 08:47:42;;;;;;;4.07;2.20;;;;;;;0.05;100.00;100572.34;4952601;28;20497;-70
2021/12/30 08:50:13;;;;;;;6.82;2.53;;;;;;;0.08;100.00;100592.03;4933743;29;20051;-71
2021/12/30 08:52:43;;;;;;;5.03;2.17;;;;;;;0.13;100.00;100611.91;4944844;29;20051;-72
2021/12/30 08:55:13;;;;;;;3.67;1.90;;;;;;;0.16;100.00;100619.75;4938975;28;20044;-71
2021/12/30 08:57:42;;;;;;;11.10;2.55;;;;;;;0.18;100.00;100615.66;4952510;28;20106;-70
2021/12/30 09:00:15;;;;;;;4.90;2.17;;;;;;;0.18;100.00;100613.13;4949477;28;20123;-70
2021/12/30 09:02:45;;;;;;;4.82;2.45;;;;;;;0.22;100.00;100605.69;4942908;29;20051;-70
2021/12/30 09:05:14;;;;;;;4.07;2.10;;;;;;;0.22;100.00;100598.06;4954163;28;20553;-70
2021/12/30 09:07:43;;;;;;;3.42;1.85;;;;;;;0.13;100.00;100604.25;4944058;28;20052;-70
2021/12/30 09:10:14;;;;;;;6.38;2.72;;;;;;;0.12;100.00;100589.78;4938046;28;20484;-70
2021/12/30 09:12:44;;;;;;;9.07;2.55;;;;;;;0.06;100.00;100588.50;4951945;28;20103;-70
2021/12/30 09:15:14;;;;;;;9.38;2.95;;;;;;;0.10;100.00;100605.75;4950843;28;20090;-71
2021/12/30 09:17:47;;;;;;;6.85;2.85;;;;;;;0.13;100.00;100606.81;4935263;29;20044;-70
2021/12/30 09:20:18;;;;;;;5.28;1.95;;;;;;;0.13;100.00;100596.63;4937382;29;20055;-70
2021/12/30 09:22:46;;;;;;;4.10;2.47;;;;;;;0.11;100.00;100598.19;4952007;28;20083;-70
2021/12/30 09:25:17;;;;;;;6.15;2.55;;;;;;;0.11;100.00;100595.66;4952651;28;20051;-70
2021/12/30 09:27:46;;;;;;;6.50;3.10;;;;;;;0.14;100.00;100572.09;4933276;29;20126;-70
2021/12/30 09:30:15;;;;;;;5.88;2.70;;;;;;;0.17;100.00;100588.44;4933739;29;20090;-71
2021/12/30 09:32:46;;;;;;;6.22;2.13;;;;;;;0.14;100.00;100570.44;4936898;29;20047;-70
2021/12/30 09:35:15;;;;;;;10.52;3.38;;;;;;;0.27;100.00;100578.88;4952583;28;20054;-71
2021/12/30 09:37:44;;;;;;;6.93;2.70;;;;;;;0.29;100.00;100569.69;4952646;28;20051;-71
2021/12/30 09:40:15;;;;;;;9.43;3.42;;;;;;;0.34;100.00;100560.69;4964363;28;20154;-71
2021/12/30 09:42:46;;;;;;;6.95;2.92;;;;;;;0.33;100.00;100557.28;4938389;28;20115;-70
2021/12/30 09:45:16;;;;;;;5.72;3.40;;;;;;;0.34;100.00;100561.56;4939296;29;20047;-71
2021/12/30 09:47:50;;;;;;;4.10;2.58;;;;;;;0.38;100.00;100598.31;4939961;28;20055;-72
2021/12/30 09:50:20;;;;;;;5.22;2.03;;;;;;;0.37;100.00;100602.53;4936747;28;20048;-72
2021/12/30 09:52:48;;;;;;;8.15;2.60;;;;;;;0.40;100.00;100594.22;4947413;29;20090;-71
2021/12/30 09:55:17;;;;;;;5.97;3.13;;;;;;;0.41;100.00;100599.41;4941867;28;20047;-71
2021/12/30 09:57:45;;;;;;;6.65;2.83;;;;;;;0.40;100.00;100591.66;4955672;28;20069;-72
2021/12/30 10:00:15;;;;;;;6.32;2.42;;;;;;;0.39;100.00;100584.78;4938907;28;20063;-71
2021/12/30 10:02:47;;;;;;;10.35;3.13;;;;;;;0.36;100.00;100580.38;4944569;29;20047;-71
2021/12/30 10:05:18;;;;;;;3.20;2.20;;;;;;;0.35;100.00;100586.25;4955294;28;20047;-71
2021/12/30 10:07:48;;;;;;;5.95;2.33;;;;;;;0.38;100.00;100572.84;4936769;29;20069;-70
2021/12/30 10:10:30;;;;;;;9.40;3.67;;;;;;;0.42;100.00;100585.00;4948494;29;20043;-71
2021/12/30 10:12:59;;;;;;;6.07;3.22;;;;;;;0.45;100.00;100586.88;4955378;29;20090;-71
2021/12/30 10:15:31;;;;;;;4.70;2.50;;;;;;;0.46;100.00;100588.63;4955384;29;20075;-71
2021/12/30 10:18:02;;;;;;;8.13;3.60;;;;;;;0.41;100.00;100562.88;4947302;29;20114;-70
2021/12/30 10:20:32;;;;;;;6.82;2.70;;;;;;;0.36;100.00;100569.31;4951707;29;20461;-70
2021/12/30 10:23:12;;;;;;;5.25;2.65;;;;;;;0.31;100.00;100555.41;4956188;29;20047;-69
2021/12/30 10:25:42;;;;;;;4.97;2.22;;;;;;;0.27;100.00;100553.44;4957029;29;20051;-70
2021/12/30 10:28:36;;;;;;;6.28;3.65;;;;;;;0.13;100.00;100540.66;4947136;29;20116;-70
2021/12/30 10:31:22;;;;;;;7.70;2.95;;;;;;;0.14;100.00;100537.34;4939216;29;20134;-69
2021/12/30 10:33:56;;;;;;;8.68;3.13;;;;;;;0.09;100.00;100532.72;4954477;29;20125;-69
2021/12/30 10:36:26;;;;;;;12.05;3.63;;;;;;;0.03;100.00;100517.94;4949566;29;20052;-70
2021/12/30 10:38:56;;;;;;;6.10;2.80;;;;;;;0.07;100.00;100526.66;4935570;29;20090;-70
2021/12/30 10:41:26;;;;;;;6.45;2.75;;;;;;;0.12;100.00;100535.50;4939274;29;20058;-71
2021/12/30 10:43:57;;;;;;;5.57;3.13;;;;;;;0.14;100.00;100518.69;4954284;29;20450;-71
2021/12/30 10:46:28;;;;;;;6.05;2.63;;;;;;;0.13;100.00;100502.50;4950643;29;20039;-71
2021/12/30 10:49:02;;;;;;;9.18;3.05;;;;;;;0.18;100.00;100508.81;4954380;29;20043;-71
2021/12/30 10:51:40;;;;;;;5.90;2.90;;;;;;;0.24;100.00;100512.53;4954596;29;20051;-71
2021/12/30 10:54:16;;;;;;;6.60;2.90;;;;;;;0.32;100.00;100526.63;4953989;29;20121;-71
2021/12/30 10:56:46;;;;;;;6.15;2.50;;;;;;;0.38;100.00;100510.09;4941691;29;20087;-70
2021/12/30 10:59:18;;;;;;;6.03;2.80;;;;;;;0.44;100.00;100507.09;4940395;28;20050;-71
2021/12/30 11:01:49;;;;;;;8.32;3.03;;;;;;;0.48;100.00;100498.88;4954153;29;20060;-69
2021/12/30 11:04:20;;;;;;;6.10;3.35;;;;;;;0.51;100.00;100483.81;4948990;29;20047;-69
2021/12/30 11:06:49;;;;;;;8.65;3.42;;;;;;;0.54;100.00;100488.22;4936588;28;20119;-70
2021/12/30 11:09:20;;;;;;;10.00;4.40;;;;;;;0.59;100.00;100486.84;4935098;29;20114;-71
2021/12/30 11:11:51;;;;;;;11.18;3.97;;;;;;;0.62;100.00;100472.66;4949558;28;20070;-70
2021/12/30 11:14:22;;;;;;;8.25;3.00;;;;;;;0.67;100.00;100464.44;4945797;28;20075;-71
2021/12/30 11:17:14;;;;;;;8.02;4.03;;;;;;;0.69;100.00;100445.91;4935534;29;20052;-70
2021/12/30 11:19:48;;;;;;;9.15;3.88;;;;;;;0.70;100.00;100428.97;4953655;28;20061;-70
2021/12/30 11:22:18;;;;;;;11.13;4.57;;;;;;;0.69;100.00;100411.91;4953048;28;20102;-68
2021/12/30 11:24:48;;;;;;;7.85;3.72;;;;;;;0.64;100.00;100403.97;4956232;28;20078;-70
2021/12/30 11:27:18;;;;;;;5.63;2.40;;;;;;;0.58;100.00;100381.56;4945378;28;20564;-69
2021/12/30 11:29:49;;;;;;;9.68;3.80;;;;;;;0.55;100.00;100370.31;4952190;29;20051;-69
2021/12/30 11:32:22;;;;;;;6.43;3.67;;;;;;;0.51;100.00;100366.69;4953808;28;20059;-69
2021/12/30 11:34:53;;;;;;;8.32;4.13;;;;;;;0.51;100.00;100366.69;4939708;28;20055;-69
2021/12/30 11:37:25;;;;;;;8.70;3.53;;;;;;;0.56;100.00;100364.44;4944448;28;20094;-70
2021/12/30 11:39:56;;;;;;;8.82;4.05;;;;;;;0.56;100.00;100339.88;4936620;29;20077;-69